CDT,Max TemperatureF,Mean TemperatureF,Min TemperatureF,Max Dew PointF,MeanDew PointF,Min DewpointF,Max Humidity, Mean Humidity, Min Humidity, Max Sea Level PressureIn, Mean Sea Level PressureIn, Min Sea Level PressureIn, Max VisibilityMiles, Mean VisibilityMiles, Min VisibilityMiles, Max Wind SpeedMPH, Mean Wind SpeedMPH, Max Gust SpeedMPH,PrecipitationIn, CloudCover, Events, WindDirDegrees
2012-10-1,77,67,57,61,58,56,93,72,50,29.79,29.68,29.62,10,7,2,18,9,28,0.01,7,Rain,321
2012-10-2,80,67,53,62,56,52,100,70,39,29.96,29.88,29.78,10,10,6,9,1,10,0.00,2,,27
2012-10-3,83,70,57,62,58,53,97,67,37,30.09,30.02,29.96,10,8,2,9,2,16,0.00,1,,152
2012-10-4,86,72,58,68,62,57,97,70,42,30.21,30.15,30.10,10,7,2,12,3,17,0.00,0,,152
2012-10-5,86,74,61,67,63,60,100,74,48,30.15,30.08,29.99,10,7,2,9,2,20,0.00,1,,174
2012-10-6,72,62,52,65,57,46,100,81,61,30.14,30.06,29.99,10,8,2,14,8,20,0.00,6,,16
2012-10-7,65,58,50,48,45,43,83,68,52,30.23,30.17,30.12,10,10,10,15,8,21,0.00,6,,14
2012-10-8,67,56,44,48,46,44,93,71,48,30.25,30.17,30.12,10,10,7,13,6,17,0.00,5,,8
2012-10-9,79,60,41,59,51,40,100,73,45,30.16,30.08,29.98,10,9,2,10,4,14,0.00,0,,143
2012-10-10,86,73,60,68,63,59,97,74,51,30.17,30.11,30.06,10,10,6,13,4,17,0.00,3,,84
2012-10-11,88,75,61,66,63,59,97,71,45,30.22,30.17,30.14,10,9,5,12,4,15,0.00,0,,141
2012-10-12,85,73,60,66,62,59,100,72,44,30.24,30.18,30.16,10,7,2,13,4,16,0.00,0,,115
2012-10-13,86,75,63,70,66,62,100,74,48,30.19,30.13,30.02,10,6,0,15,8,21,0.00,3,Fog,147
2012-10-14,87,79,70,72,69,65,93,71,48,30.09,30.01,29.96,10,8,2,17,6,23,0.74,5,Rain-Thunderstorm,188
2012-10-15,83,69,55,70,57,47,100,64,28,30.08,30.02,29.96,10,8,1,10,3,15,0.00,0,Fog,19
2012-10-16,75,64,52,60,56,52,93,70,46,30.01,29.92,29.83,10,10,7,12,3,14,0.00,1,,154
2012-10-17,85,71,56,72,64,55,100,79,58,29.83,29.74,29.64,10,9,5,18,8,23,T,3,,177
2012-10-18,80,65,50,72,54,38,93,57,21,29.96,29.85,29.69,10,10,8,14,5,20,T,2,Rain-Thunderstorm,13
2012-10-19,78,61,44,49,42,32,100,60,19,29.98,29.93,29.88,10,10,6,20,4,28,0.00,0,,293
2012-10-20,83,64,44,51,46,40,93,58,22,30.00,29.94,29.90,10,10,10,12,4,16,0.00,0,,145
2012-10-21,86,71,55,63,58,51,90,65,40,30.06,30.01,29.95,10,10,10,16,7,21,0.00,1,,150
2012-10-22,85,70,54,63,59,55,100,69,37,30.12,30.06,30.00,10,8,2,13,6,17,0.00,0,,140
2012-10-23,85,72,58,66,63,57,100,74,47,30.08,30.03,29.97,10,6,0,12,5,20,0.00,3,Fog,139
2012-10-24,86,74,62,68,64,60,100,76,51,30.07,30.01,29.94,10,7,0,12,5,23,0.00,3,Fog,131
2012-10-25,86,75,63,67,64,62,93,71,48,29.99,29.93,29.89,10,8,3,15,5,18,0.00,2,,141
2012-10-26,70,62,54,67,56,44,93,84,75,30.18,30.05,29.94,10,8,2,16,6,21,0.03,7,Rain-Thunderstorm,346
2012-10-27,63,52,41,43,38,35,83,60,36,30.19,30.13,30.05,10,10,10,18,9,25,0.00,1,,346
2012-10-28,64,50,36,37,34,29,85,56,27,30.22,30.18,30.14,10,10,10,18,7,24,0.00,0,,338
2012-10-29,66,50,33,38,34,31,96,63,30,30.29,30.21,30.15,10,10,10,16,3,22,0.00,0,,353
2012-10-30,70,51,32,44,37,30,96,64,31,30.16,30.09,30.01,10,8,1,10,2,20,0.00,1,,263
2012-10-31,82,63,44,58,51,42,93,66,39,30.04,29.99,29.93,10,10,7,17,4,24,0.00,1,,257